Airports United Kingdom Birmingham International Airport

Birmingham International Airport (EGBB / BHX)

Facts about Birmingham International Airport

Name Birmingham International Airport
City Birmingham
Country United Kingdom
ICAO code EGBB
IATA code BHX
Elevation 99.6696 meters (327 feet)

Weather

METAR

Metar data retrieved Saturday, 20 July 2024 at 00:55 UTC (19 minutes ago)

EGBB 200020Z 25004KT CAVOK 18/15 Q1011

Live traffic

Navigraph Charts (account required)